createdAt,value
2022-11-20T00:01:18.958Z,68.65
2022-11-20T00:03:45.766Z,69.09
2022-11-20T00:06:15.106Z,69.59
2022-11-20T00:08:41.819Z,68.93
2022-11-20T00:11:15.485Z,68.96
2022-11-20T00:13:47.921Z,69.77
2022-11-20T00:16:17.030Z,68.88
2022-11-20T00:18:44.771Z,67.76
2022-11-20T00:21:16.420Z,68.30
2022-11-20T00:23:43.000Z,68.21
2022-11-20T00:26:15.178Z,69.41
2022-11-20T00:28:42.600Z,68.78
2022-11-20T00:31:14.766Z,69.24
2022-11-20T00:33:42.923Z,69.26
2022-11-20T00:36:10.512Z,68.79
2022-11-20T00:38:37.311Z,68.83
2022-11-20T00:41:08.818Z,68.76
2022-11-20T00:43:36.530Z,68.81
2022-11-20T00:46:11.499Z,68.84
2022-11-20T00:48:38.075Z,68.96
2022-11-20T00:51:05.308Z,68.99
2022-11-20T00:53:32.323Z,68.65
2022-11-20T00:56:06.642Z,69.22
2022-11-20T00:58:38.214Z,68.76
2022-11-20T01:01:19.384Z,69.02
2022-11-20T01:03:48.343Z,68.36
2022-11-20T01:06:35.592Z,68.92
2022-11-20T01:09:14.362Z,68.66
2022-11-20T01:11:43.611Z,68.73
2022-11-20T01:14:15.280Z,68.55
2022-11-20T01:16:44.561Z,69.61
2022-11-20T01:19:17.652Z,69.73
2022-11-20T01:21:46.199Z,69.73
2022-11-20T01:24:15.315Z,69.50
2022-11-20T01:26:43.442Z,69.64
2022-11-20T01:29:17.667Z,69.83
2022-11-20T01:31:44.923Z,69.73
2022-11-20T01:34:13.481Z,68.79
2022-11-20T01:36:40.434Z,68.30
2022-11-20T01:39:15.333Z,69.32
2022-11-20T01:42:03.484Z,68.96
2022-11-20T01:45:01.836Z,69.09
2022-11-20T01:47:37.031Z,69.04
2022-11-20T01:50:26.408Z,68.63
2022-11-20T01:52:58.911Z,68.24
2022-11-20T01:55:38.431Z,69.04
2022-11-20T01:58:05.580Z,68.30
2022-11-20T02:00:32.833Z,69.04
2022-11-20T02:03:01.770Z,69.42
2022-11-20T02:05:33.759Z,69.91
2022-11-20T02:08:00.944Z,69.83
2022-11-20T02:10:28.351Z,70.22
2022-11-20T02:13:13.626Z,69.31
2022-11-20T02:15:40.980Z,69.05
2022-11-20T02:18:07.964Z,69.13
2022-11-20T02:20:34.559Z,68.70
2022-11-20T02:23:13.290Z,68.69
2022-11-20T02:25:40.440Z,68.49
2022-11-20T02:28:07.981Z,68.38
2022-11-20T02:30:34.504Z,68.87
2022-11-20T02:33:01.035Z,68.97
2022-11-20T02:35:27.473Z,68.49
2022-11-20T02:37:56.004Z,68.76
2022-11-20T02:40:22.862Z,68.40
2022-11-20T02:42:53.376Z,69.06
2022-11-20T02:45:20.034Z,69.41
2022-11-20T02:47:46.522Z,69.09
2022-11-20T02:50:13.485Z,69.29
2022-11-20T02:52:40.069Z,68.44
2022-11-20T02:55:07.276Z,68.81
2022-11-20T02:57:33.781Z,68.37
2022-11-20T03:00:00.384Z,68.32
2022-11-20T03:02:27.238Z,68.79
2022-11-20T03:04:53.827Z,68.39
2022-11-20T03:07:20.410Z,68.83
2022-11-20T03:09:46.981Z,68.98
2022-11-20T03:12:13.491Z,68.56
2022-11-20T03:14:40.090Z,68.20
2022-11-20T03:17:06.788Z,68.55
2022-11-20T03:19:35.235Z,67.80
2022-11-20T03:22:02.105Z,68.09
2022-11-20T03:24:28.719Z,68.32
2022-11-20T03:26:55.442Z,68.89
2022-11-20T03:29:22.194Z,68.10
2022-11-20T03:31:48.893Z,68.00
2022-11-20T03:34:15.493Z,67.99
2022-11-20T03:36:43.033Z,68.02
2022-11-20T03:39:09.811Z,68.49
2022-11-20T03:41:38.384Z,67.80
2022-11-20T03:44:07.062Z,68.36
2022-11-20T03:46:33.903Z,68.58
2022-11-20T03:49:00.547Z,68.67
2022-11-20T03:51:29.424Z,68.95
2022-11-20T03:53:58.950Z,68.52
2022-11-20T03:56:37.523Z,68.69
2022-11-20T03:59:04.674Z,68.89
2022-11-20T04:01:33.798Z,68.74
2022-11-20T04:04:00.687Z,68.86
2022-11-20T04:06:29.547Z,68.11
2022-11-20T04:08:57.436Z,69.14
2022-11-20T04:11:28.723Z,68.79
2022-11-20T04:13:57.472Z,69.04
2022-11-20T04:16:25.656Z,69.08
2022-11-20T04:18:54.166Z,68.97
2022-11-20T04:21:21.504Z,69.22
2022-11-20T04:23:48.111Z,69.23
2022-11-20T04:26:14.697Z,69.88
2022-11-20T04:28:41.453Z,69.06
2022-11-20T04:31:18.309Z,68.81
2022-11-20T04:33:45.495Z,68.96
2022-11-20T04:36:17.012Z,68.70
2022-11-20T04:38:43.727Z,69.14
2022-11-20T04:41:18.249Z,69.03
2022-11-20T04:43:49.413Z,69.33
2022-11-20T04:46:17.108Z,68.91
2022-11-20T04:48:43.680Z,68.60
2022-11-20T04:51:10.234Z,68.44
2022-11-20T04:53:37.459Z,68.63
2022-11-20T04:56:08.430Z,67.78
2022-11-20T04:58:35.285Z,68.08
2022-11-20T05:01:06.784Z,67.97
2022-11-20T05:03:37.306Z,68.24
2022-11-20T05:06:07.032Z,67.56
2022-11-20T05:08:34.049Z,68.02
2022-11-20T05:11:09.148Z,67.97
2022-11-20T05:13:35.844Z,67.97
2022-11-20T05:16:11.629Z,67.82
2022-11-20T05:18:39.467Z,68.20
2022-11-20T05:21:06.593Z,67.93
2022-11-20T05:23:33.506Z,67.54
2022-11-20T05:26:00.423Z,67.38
2022-11-20T05:28:28.433Z,67.09
2022-11-20T05:30:55.100Z,67.42
2022-11-20T05:33:22.101Z,67.43
2022-11-20T05:35:49.609Z,67.41
2022-11-20T05:38:16.610Z,67.13
2022-11-20T05:40:43.455Z,66.99
2022-11-20T05:43:09.975Z,66.69
2022-11-20T05:45:36.635Z,67.01
2022-11-20T05:48:03.402Z,66.81
2022-11-20T05:50:29.927Z,67.23
2022-11-20T05:53:00.313Z,67.34
2022-11-20T05:55:27.586Z,66.64
2022-11-20T05:57:55.775Z,66.95
2022-11-20T06:00:22.308Z,67.30
2022-11-20T06:02:48.926Z,66.84
2022-11-20T06:05:15.548Z,67.89
2022-11-20T06:07:42.280Z,67.51
2022-11-20T06:10:09.189Z,67.12
2022-11-20T06:12:35.786Z,67.52
2022-11-20T06:15:02.374Z,67.71
2022-11-20T06:17:28.936Z,67.76
2022-11-20T06:19:55.490Z,68.70
2022-11-20T06:22:22.037Z,68.30
2022-11-20T06:24:49.128Z,68.06
2022-11-20T06:27:15.672Z,68.35
2022-11-20T06:29:42.283Z,67.81
2022-11-20T06:32:08.904Z,67.58
2022-11-20T06:34:35.424Z,68.02
2022-11-20T06:37:02.481Z,67.68
2022-11-20T06:39:29.016Z,67.86
2022-11-20T06:41:58.715Z,68.19
2022-11-20T06:44:25.681Z,67.39
2022-11-20T06:46:52.307Z,67.28
2022-11-20T06:49:19.027Z,67.26
2022-11-20T06:51:46.387Z,67.13
2022-11-20T06:54:12.948Z,66.48
2022-11-20T06:56:39.615Z,66.67
2022-11-20T06:59:07.023Z,66.76
2022-11-20T07:01:34.163Z,66.65
2022-11-20T07:04:00.714Z,67.20
2022-11-20T07:06:27.208Z,67.35
2022-11-20T07:08:53.937Z,67.08
2022-11-20T07:11:20.611Z,67.38
2022-11-20T07:13:47.296Z,67.62
2022-11-20T07:16:13.865Z,67.58
2022-11-20T07:18:40.456Z,68.21
2022-11-20T07:21:09.791Z,67.79
2022-11-20T07:23:37.622Z,67.70
2022-11-20T07:26:08.810Z,67.41
2022-11-20T07:28:36.247Z,67.28
2022-11-20T07:31:03.042Z,66.96
2022-11-20T07:33:29.884Z,67.14
2022-11-20T07:35:56.491Z,67.18
2022-11-20T07:38:23.108Z,67.05
2022-11-20T07:40:49.950Z,66.67
2022-11-20T07:43:16.716Z,66.02
2022-11-20T07:45:44.300Z,65.99
2022-11-20T07:48:10.891Z,66.46
2022-11-20T07:50:37.863Z,66.75
2022-11-20T07:53:05.805Z,66.14
2022-11-20T07:55:33.021Z,66.73
2022-11-20T07:57:59.886Z,66.69
2022-11-20T08:00:27.583Z,66.70
2022-11-20T08:02:54.634Z,66.78
2022-11-20T08:05:21.395Z,66.33
2022-11-20T08:07:48.232Z,66.70
2022-11-20T08:10:16.934Z,66.35
2022-11-20T08:13:07.619Z,67.13
2022-11-20T08:15:34.842Z,68.09
2022-11-20T08:20:56.347Z,67.73
2022-11-20T08:23:23.734Z,67.62
2022-11-20T08:25:51.012Z,67.46
2022-11-20T08:28:21.377Z,67.11
2022-11-20T08:30:49.199Z,67.28
2022-11-20T08:33:16.036Z,67.63
2022-11-20T08:35:44.018Z,67.29
2022-11-20T08:38:10.562Z,67.39
2022-11-20T08:40:37.404Z,67.83
2022-11-20T08:43:04.069Z,67.28
2022-11-20T08:45:34.037Z,66.67
2022-11-20T08:48:03.434Z,66.28
2022-11-20T08:50:32.986Z,66.63
2022-11-20T08:53:04.724Z,66.23
2022-11-20T08:55:31.459Z,65.72
2022-11-20T08:57:57.954Z,67.09
2022-11-20T09:00:24.768Z,67.55
2022-11-20T09:02:51.351Z,67.59
2022-11-20T09:05:17.882Z,67.29
2022-11-20T09:07:44.481Z,67.28
2022-11-20T09:10:28.426Z,67.70
2022-11-20T09:13:01.514Z,67.28
2022-11-20T09:15:28.296Z,67.81
2022-11-20T09:17:57.833Z,67.69
2022-11-20T09:20:24.720Z,68.91
2022-11-20T09:22:51.472Z,71.03
2022-11-20T09:25:20.582Z,71.07
2022-11-20T09:27:47.957Z,71.06
2022-11-20T09:30:17.532Z,70.60
2022-11-20T09:32:44.215Z,70.45
2022-11-20T09:35:11.577Z,71.40
2022-11-20T09:37:38.453Z,70.32
2022-11-20T09:40:09.245Z,70.52
2022-11-20T09:42:44.697Z,70.12
2022-11-20T09:45:23.398Z,69.75
2022-11-20T09:47:53.047Z,71.09
2022-11-20T09:50:37.747Z,69.97
2022-11-20T09:53:50.155Z,71.02
2022-11-20T09:56:18.325Z,70.72
2022-11-20T09:58:52.928Z,70.24
2022-11-20T10:01:22.805Z,70.17
2022-11-20T10:03:58.989Z,70.18
2022-11-20T10:06:32.542Z,69.55
2022-11-20T10:09:14.536Z,69.06
2022-11-20T10:12:07.496Z,70.53
2022-11-20T10:14:47.966Z,69.80
2022-11-20T10:17:38.880Z,71.16
2022-11-20T10:20:12.549Z,70.62
2022-11-20T10:22:45.191Z,70.76
2022-11-20T10:25:17.206Z,69.03
2022-11-20T10:28:11.624Z,69.78
2022-11-20T10:30:42.737Z,71.17
2022-11-20T10:33:24.985Z,71.43
2022-11-20T10:36:09.615Z,71.67
2022-11-20T10:38:47.104Z,71.55
2022-11-20T10:41:27.248Z,72.93
2022-11-20T10:44:02.830Z,74.39
2022-11-20T10:46:38.452Z,72.44
2022-11-20T10:49:12.110Z,73.79
2022-11-20T10:51:44.543Z,73.25
2022-11-20T10:54:19.387Z,73.31
2022-11-20T10:56:51.695Z,73.72
2022-11-20T10:59:45.404Z,74.76
2022-11-20T11:02:23.593Z,74.24
2022-11-20T11:04:52.411Z,73.55
2022-11-20T11:07:29.018Z,74.63
2022-11-20T11:09:56.880Z,75.01
2022-11-20T11:12:25.538Z,74.29
2022-11-20T11:14:54.391Z,72.54
2022-11-20T11:17:24.082Z,73.60
2022-11-20T11:20:00.479Z,73.80
2022-11-20T11:22:30.650Z,73.67
2022-11-20T11:24:57.258Z,71.88
2022-11-20T11:27:23.900Z,71.85
2022-11-20T11:29:50.465Z,70.75
2022-11-20T11:32:21.506Z,70.54
2022-11-20T11:35:06.023Z,71.07
2022-11-20T11:37:38.161Z,70.64
2022-11-20T11:43:00.121Z,71.49
2022-11-20T11:45:26.824Z,71.42
2022-11-20T11:47:56.826Z,71.29
2022-11-20T11:50:25.559Z,71.06
2022-11-20T11:52:58.125Z,71.41
2022-11-20T11:56:01.499Z,71.83
2022-11-20T11:58:48.318Z,71.94
2022-11-20T12:01:35.129Z,70.63
2022-11-20T12:04:12.162Z,69.43
2022-11-20T12:06:40.207Z,69.44
2022-11-20T12:09:09.320Z,69.46
2022-11-20T12:11:55.446Z,69.66
2022-11-20T12:14:38.713Z,68.54
2022-11-20T12:17:05.723Z,68.25
2022-11-20T12:19:34.510Z,67.75
2022-11-20T12:22:20.112Z,68.03
2022-11-20T12:24:56.530Z,68.09
2022-11-20T12:27:48.840Z,68.18
2022-11-20T12:30:17.077Z,67.97
2022-11-20T12:33:22.270Z,68.01
2022-11-20T12:36:00.954Z,67.08
2022-11-20T12:38:36.703Z,66.72
2022-11-20T12:41:43.915Z,65.60
2022-11-20T12:44:53.924Z,65.52
2022-11-20T12:47:51.347Z,63.76
2022-11-20T12:51:00.177Z,65.62
2022-11-20T12:53:40.749Z,64.29
2022-11-20T12:56:27.093Z,64.33
2022-11-20T12:59:20.110Z,63.10
2022-11-20T13:02:25.893Z,62.02
2022-11-20T13:05:05.811Z,63.42
2022-11-20T13:07:34.139Z,62.43
2022-11-20T13:10:01.663Z,63.81
2022-11-20T13:12:33.388Z,64.12
2022-11-20T13:15:30.923Z,63.19
2022-11-20T13:18:02.197Z,62.97
2022-11-20T13:20:29.115Z,64.28
2022-11-20T13:22:58.101Z,62.96
2022-11-20T13:25:27.415Z,62.83
2022-11-20T13:27:55.101Z,62.85
2022-11-20T13:30:26.372Z,61.60
2022-11-20T13:32:57.014Z,62.45
2022-11-20T13:35:34.941Z,63.19
2022-11-20T13:38:13.271Z,63.42
2022-11-20T13:40:52.785Z,63.20
2022-11-20T13:43:34.675Z,62.06
2022-11-20T13:46:03.655Z,61.70
2022-11-20T13:48:35.036Z,60.74
2022-11-20T13:51:04.795Z,59.79
2022-11-20T13:54:25.156Z,60.56
2022-11-20T13:57:18.823Z,61.54
2022-11-20T13:59:54.276Z,61.13
2022-11-20T14:02:22.222Z,62.31
2022-11-20T14:04:58.206Z,61.69
2022-11-20T14:07:28.545Z,61.16
2022-11-20T14:09:57.501Z,60.97
2022-11-20T14:12:34.575Z,61.87
2022-11-20T14:15:01.951Z,61.67
2022-11-20T14:17:36.438Z,61.87
2022-11-20T14:20:05.732Z,61.36
2022-11-20T14:22:32.337Z,62.00
2022-11-20T14:25:03.545Z,63.10
2022-11-20T14:27:30.223Z,63.40
2022-11-20T14:29:56.800Z,63.73
2022-11-20T14:32:27.378Z,62.90
2022-11-20T14:34:58.003Z,63.95
2022-11-20T14:37:25.845Z,63.55
2022-11-20T14:39:56.727Z,64.05
2022-11-20T14:42:25.785Z,63.57
2022-11-20T14:44:55.447Z,63.42
2022-11-20T14:47:30.411Z,63.57
2022-11-20T14:49:58.284Z,63.89
2022-11-20T14:52:26.691Z,62.29
2022-11-20T14:55:03.154Z,62.10
2022-11-20T14:57:32.201Z,62.51
2022-11-20T15:00:08.601Z,63.43
2022-11-20T15:02:35.568Z,63.90
2022-11-20T15:05:05.858Z,63.21
2022-11-20T15:07:35.223Z,63.96
2022-11-20T15:10:10.240Z,62.95
2022-11-20T15:12:50.429Z,64.39
2022-11-20T15:15:22.153Z,63.40
2022-11-20T15:17:48.780Z,63.55
2022-11-20T15:20:17.235Z,63.62
2022-11-20T15:22:43.845Z,64.18
2022-11-20T15:25:18.365Z,64.34
2022-11-20T15:27:45.162Z,64.54
2022-11-20T15:30:17.934Z,64.59
2022-11-20T15:32:45.083Z,65.27
2022-11-20T15:35:11.930Z,64.51
2022-11-20T15:37:39.198Z,64.04
2022-11-20T15:40:06.840Z,64.38
2022-11-20T15:42:33.801Z,64.25
2022-11-20T15:45:01.062Z,63.66
2022-11-20T15:47:32.643Z,63.82
2022-11-20T15:49:59.602Z,63.97
2022-11-20T15:52:26.285Z,64.18
2022-11-20T15:54:52.861Z,64.16
2022-11-20T15:57:19.952Z,64.23
2022-11-20T15:59:46.473Z,64.64
2022-11-20T16:02:18.690Z,64.69
2022-11-20T16:04:45.769Z,64.54
2022-11-20T16:07:14.389Z,64.23
2022-11-20T16:09:41.172Z,64.63
2022-11-20T16:12:30.364Z,64.86
2022-11-20T16:15:15.382Z,64.86
2022-11-20T16:17:44.849Z,65.07
2022-11-20T16:20:14.468Z,65.46
2022-11-20T16:22:41.049Z,65.08
2022-11-20T16:25:07.967Z,65.15
2022-11-20T16:27:34.508Z,65.05
2022-11-20T16:30:01.139Z,65.37
2022-11-20T16:32:28.053Z,66.14
2022-11-20T16:34:54.983Z,66.40
2022-11-20T16:37:21.595Z,66.45
2022-11-20T16:39:48.371Z,66.34
2022-11-20T16:42:15.810Z,66.09
2022-11-20T16:44:42.749Z,65.89
2022-11-20T16:47:09.334Z,65.98
2022-11-20T16:49:35.884Z,65.85
2022-11-20T16:52:02.495Z,65.50
2022-11-20T16:54:29.043Z,65.34
2022-11-20T16:56:55.682Z,65.52
2022-11-20T16:59:22.233Z,65.13
2022-11-20T17:01:48.841Z,65.44
2022-11-20T17:04:15.657Z,65.32
2022-11-20T17:06:48.064Z,65.86
2022-11-20T17:09:18.636Z,65.92
2022-11-20T17:11:45.147Z,66.10
2022-11-20T17:14:12.435Z,66.16
2022-11-20T17:16:39.199Z,66.12
2022-11-20T17:19:05.946Z,65.93
2022-11-20T17:21:33.764Z,65.93
2022-11-20T17:24:04.794Z,65.88
2022-11-20T17:26:31.689Z,65.91
2022-11-20T17:29:02.288Z,65.59
2022-11-20T17:31:30.586Z,66.14
2022-11-20T17:34:00.280Z,65.53
2022-11-20T17:36:27.468Z,66.03
2022-11-20T17:38:54.458Z,65.41
2022-11-20T17:41:22.929Z,65.87
2022-11-20T17:43:50.415Z,65.98
2022-11-20T17:46:19.306Z,65.87
2022-11-20T17:48:47.479Z,66.08
2022-11-20T17:51:15.475Z,65.47
2022-11-20T17:53:44.203Z,65.59
2022-11-20T17:56:29.866Z,65.58
2022-11-20T17:58:57.385Z,65.48
2022-11-20T18:01:24.105Z,65.30
2022-11-20T18:03:50.967Z,65.16
2022-11-20T18:06:19.663Z,65.23
2022-11-20T18:08:47.501Z,65.67
2022-11-20T18:11:21.423Z,65.81
2022-11-20T18:14:11.423Z,66.13
2022-11-20T18:17:05.272Z,66.51
2022-11-20T18:19:42.601Z,65.88
2022-11-20T18:22:15.972Z,65.88
2022-11-20T18:24:43.669Z,65.96
2022-11-20T18:27:16.150Z,66.02
2022-11-20T18:29:43.436Z,64.88
2022-11-20T18:32:09.974Z,65.17
2022-11-20T18:34:36.558Z,65.07
2022-11-20T18:37:03.129Z,65.08
2022-11-20T18:39:29.770Z,64.34
2022-11-20T18:42:14.851Z,65.11
2022-11-20T18:44:51.382Z,65.32
2022-11-20T18:47:40.089Z,65.13
2022-11-20T18:50:08.425Z,65.65
2022-11-20T18:52:39.816Z,66.14
2022-11-20T18:55:07.339Z,65.90
2022-11-20T18:57:33.937Z,66.97
2022-11-20T19:00:05.084Z,67.33
2022-11-20T19:02:40.879Z,69.51
2022-11-20T19:05:09.703Z,69.77
2022-11-20T19:07:36.534Z,70.02
2022-11-20T19:10:04.552Z,69.25
2022-11-20T19:12:31.352Z,69.56
2022-11-20T19:14:58.098Z,69.38
2022-11-20T19:17:24.650Z,70.07
2022-11-20T19:19:51.274Z,69.95
2022-11-20T19:22:18.230Z,70.96
2022-11-20T19:24:45.820Z,70.51
2022-11-20T19:27:12.365Z,70.40
2022-11-20T19:29:39.005Z,70.08
2022-11-20T19:32:05.833Z,69.67
2022-11-20T19:34:32.409Z,70.42
2022-11-20T19:37:00.689Z,70.09
2022-11-20T19:39:27.453Z,70.96
2022-11-20T19:41:54.239Z,71.56
2022-11-20T19:44:20.904Z,71.40
2022-11-20T19:46:47.513Z,70.95
2022-11-20T19:49:15.028Z,70.91
2022-11-20T19:51:47.740Z,71.04
2022-11-20T19:54:15.280Z,71.10
2022-11-20T19:56:44.873Z,69.70
2022-11-20T19:59:13.059Z,70.14
2022-11-20T20:01:40.020Z,70.33
2022-11-20T20:04:07.243Z,70.76
2022-11-20T20:06:35.873Z,70.47
2022-11-20T20:09:11.824Z,71.91
2022-11-20T20:11:39.099Z,72.13
2022-11-20T20:14:10.154Z,71.07
2022-11-20T20:16:36.795Z,70.72
2022-11-20T20:19:04.773Z,69.38
2022-11-20T20:21:33.375Z,70.86
2022-11-20T20:24:01.314Z,70.74
2022-11-20T20:26:30.173Z,70.98
2022-11-20T20:28:57.237Z,70.21
2022-11-20T20:31:25.767Z,70.13
2022-11-20T20:33:52.495Z,69.31
2022-11-20T20:36:20.266Z,69.69
2022-11-20T20:38:48.184Z,70.64
2022-11-20T20:41:14.928Z,68.77
2022-11-20T20:44:00.040Z,69.42
2022-11-20T20:46:26.656Z,70.32
2022-11-20T20:48:54.922Z,70.58
2022-11-20T20:51:22.230Z,71.01
2022-11-20T20:53:49.722Z,70.59
2022-11-20T20:56:17.316Z,70.64
2022-11-20T20:58:45.003Z,70.34
2022-11-20T21:01:13.960Z,69.68
2022-11-20T21:03:40.641Z,70.63
2022-11-20T21:06:08.283Z,70.76
2022-11-20T21:08:36.983Z,70.18
2022-11-20T21:11:12.047Z,70.41
2022-11-20T21:13:39.785Z,69.77
2022-11-20T21:16:06.736Z,69.91
2022-11-20T21:18:33.898Z,69.98
2022-11-20T21:21:19.590Z,69.20
2022-11-20T21:23:47.757Z,69.45
2022-11-20T21:26:14.401Z,69.82
2022-11-20T21:28:40.911Z,70.24
2022-11-20T21:31:09.610Z,68.61
2022-11-20T21:33:40.333Z,70.26
2022-11-20T21:36:08.254Z,70.83
2022-11-20T21:38:35.775Z,70.40
2022-11-20T21:41:03.941Z,69.45
2022-11-20T21:43:30.934Z,70.11
2022-11-20T21:46:01.961Z,70.37
2022-11-20T21:48:30.395Z,69.90
2022-11-20T21:51:05.496Z,69.48
2022-11-20T21:53:33.835Z,69.43
2022-11-20T21:56:00.464Z,69.28
2022-11-20T21:58:27.672Z,69.41
2022-11-20T22:00:55.011Z,68.90
2022-11-20T22:03:21.984Z,69.11
2022-11-20T22:05:56.468Z,68.01
2022-11-20T22:08:24.475Z,67.78
2022-11-20T22:11:00.800Z,68.01
2022-11-20T22:13:47.303Z,68.20
2022-11-20T22:16:14.503Z,69.67
2022-11-20T22:18:49.172Z,68.34
2022-11-20T22:21:17.888Z,68.30
2022-11-20T22:23:44.497Z,69.42
2022-11-20T22:26:13.892Z,68.29
2022-11-20T22:28:40.780Z,68.14
2022-11-20T22:31:09.580Z,67.71
2022-11-20T22:33:37.467Z,68.89
2022-11-20T22:36:09.491Z,69.10
2022-11-20T22:38:39.477Z,69.35
2022-11-20T22:41:08.515Z,69.94
2022-11-20T22:43:35.655Z,69.92
2022-11-20T22:46:21.048Z,70.37
2022-11-20T22:49:12.397Z,71.14
2022-11-20T22:51:40.562Z,71.11
2022-11-20T22:54:07.321Z,71.04
2022-11-20T22:56:34.989Z,70.57
2022-11-20T22:59:06.880Z,69.88
2022-11-20T23:01:36.686Z,70.05
2022-11-20T23:04:09.210Z,69.20
2022-11-20T23:06:35.854Z,70.52
2022-11-20T23:09:06.958Z,68.96
2022-11-20T23:11:33.934Z,70.29
2022-11-20T23:14:02.721Z,70.11
2022-11-20T23:16:30.878Z,69.99
2022-11-20T23:19:01.120Z,68.39
2022-11-20T23:21:27.801Z,69.29
2022-11-20T23:23:56.030Z,68.42
2022-11-20T23:26:24.348Z,68.10
2022-11-20T23:28:53.396Z,66.89
2022-11-20T23:31:20.352Z,67.54
2022-11-20T23:33:46.958Z,67.93
2022-11-20T23:36:14.127Z,68.29
2022-11-20T23:38:40.979Z,68.25
2022-11-20T23:41:07.717Z,67.86
2022-11-20T23:43:34.508Z,68.52
2022-11-20T23:46:02.079Z,68.75
2022-11-20T23:48:36.668Z,68.95
2022-11-20T23:51:03.448Z,68.28
2022-11-20T23:53:30.299Z,68.24
2022-11-20T23:55:59.557Z,69.00
2022-11-20T23:58:30.476Z,69.67
